createdAt,value
2022-11-13T00:01:15.755Z,12.60
2022-11-13T00:04:00.889Z,12.60
2022-11-13T00:06:46.322Z,12.60
2022-11-13T00:09:31.471Z,12.60
2022-11-13T00:12:17.056Z,12.60
2022-11-13T00:15:02.594Z,12.60
2022-11-13T00:17:48.125Z,12.60
2022-11-13T00:20:33.650Z,12.60
2022-11-13T00:23:19.060Z,12.60
2022-11-13T00:26:06.092Z,12.60
2022-11-13T00:28:55.641Z,12.70
2022-11-13T00:31:41.080Z,12.60
2022-11-13T00:34:46.321Z,12.60
2022-11-13T00:37:31.863Z,12.70
2022-11-13T00:40:17.398Z,12.70
2022-11-13T00:43:02.690Z,12.70
2022-11-13T00:45:48.087Z,12.60
2022-11-13T00:48:33.846Z,12.70
2022-11-13T00:51:19.744Z,12.60
2022-11-13T00:54:05.477Z,12.60
2022-11-13T00:56:51.106Z,12.60
2022-11-13T00:59:36.520Z,12.60
2022-11-13T01:02:21.950Z,12.60
2022-11-13T01:05:07.787Z,12.60
2022-11-13T01:07:53.203Z,12.60
2022-11-13T01:10:44.857Z,12.60
2022-11-13T01:13:31.773Z,12.60
2022-11-13T01:16:18.535Z,12.60
2022-11-13T01:19:03.762Z,12.60
2022-11-13T01:21:49.154Z,12.60
2022-11-13T01:24:34.580Z,12.60
2022-11-13T01:27:20.194Z,12.60
2022-11-13T01:30:06.251Z,12.60
2022-11-13T01:32:51.511Z,12.70
2022-11-13T01:35:37.203Z,12.70
2022-11-13T01:38:22.759Z,12.70
2022-11-13T01:41:08.760Z,12.70
2022-11-13T01:43:54.613Z,12.60
2022-11-13T01:47:09.571Z,12.60
2022-11-13T01:49:56.422Z,12.70
2022-11-13T01:52:41.607Z,12.70
2022-11-13T01:55:27.056Z,12.70
2022-11-13T01:58:12.487Z,12.70
2022-11-13T02:00:57.893Z,12.70
2022-11-13T02:03:43.457Z,12.70
2022-11-13T02:06:30.874Z,12.70
2022-11-13T02:09:17.824Z,12.70
2022-11-13T02:12:03.895Z,12.70
2022-11-13T02:14:52.156Z,12.70
2022-11-13T02:17:44.712Z,12.70
2022-11-13T02:20:39.754Z,12.70
2022-11-13T02:23:31.509Z,12.70
2022-11-13T02:26:17.097Z,12.70
2022-11-13T02:29:02.576Z,12.70
2022-11-13T02:31:47.994Z,12.70
2022-11-13T02:34:33.159Z,12.70
2022-11-13T02:37:18.665Z,12.60
2022-11-13T02:40:04.395Z,12.60
2022-11-13T02:42:49.921Z,12.50
2022-11-13T02:45:35.373Z,12.50
2022-11-13T02:48:20.762Z,12.50
2022-11-13T02:51:06.339Z,12.50
2022-11-13T02:53:51.794Z,12.50
2022-11-13T02:56:37.020Z,12.50
2022-11-13T02:59:22.421Z,12.40
2022-11-13T03:02:08.100Z,12.40
2022-11-13T03:07:59.125Z,12.30
2022-11-13T03:10:44.609Z,12.30
2022-11-13T03:13:30.067Z,12.20
2022-11-13T03:16:16.182Z,12.20
2022-11-13T03:19:01.419Z,12.30
2022-11-13T03:21:46.957Z,12.30
2022-11-13T03:24:32.545Z,12.30
2022-11-13T03:27:18.077Z,12.30
2022-11-13T03:30:04.855Z,12.30
2022-11-13T03:32:54.296Z,12.30
2022-11-13T03:35:45.465Z,12.30
2022-11-13T03:38:32.457Z,12.30
2022-11-13T03:41:18.043Z,12.30
2022-11-13T03:44:03.530Z,12.40
2022-11-13T03:46:49.135Z,12.40
2022-11-13T03:49:34.586Z,12.40
2022-11-13T03:52:20.166Z,12.40
2022-11-13T03:55:05.842Z,12.50
2022-11-13T03:57:51.667Z,12.50
2022-11-13T04:00:38.029Z,12.50
2022-11-13T04:03:23.482Z,12.50
2022-11-13T04:06:09.654Z,12.50
2022-11-13T04:08:54.928Z,12.50
2022-11-13T04:11:40.363Z,12.50
2022-11-13T04:14:25.931Z,12.40
2022-11-13T04:17:11.345Z,12.40
2022-11-13T04:19:56.800Z,12.40
2022-11-13T04:22:42.731Z,12.40
2022-11-13T04:25:28.350Z,12.40
2022-11-13T04:28:13.900Z,12.40
2022-11-13T04:30:59.323Z,12.40
2022-11-13T04:33:44.772Z,12.40
2022-11-13T04:36:30.226Z,12.30
2022-11-13T04:39:15.660Z,12.40
2022-11-13T04:42:19.785Z,12.40
2022-11-13T04:45:05.674Z,12.40
2022-11-13T04:47:51.477Z,12.40
2022-11-13T04:50:36.748Z,12.40
2022-11-13T04:53:22.118Z,12.40
2022-11-13T04:56:07.754Z,12.40
2022-11-13T04:58:53.217Z,12.40
2022-11-13T05:01:38.650Z,12.40
2022-11-13T05:04:24.157Z,12.40
2022-11-13T05:07:09.536Z,12.30
2022-11-13T05:09:54.969Z,12.40
2022-11-13T05:12:40.216Z,12.40
2022-11-13T05:15:26.534Z,12.40
2022-11-13T05:18:12.398Z,12.40
2022-11-13T05:20:58.086Z,12.40
2022-11-13T05:23:43.560Z,12.40
2022-11-13T05:26:29.041Z,12.30
2022-11-13T05:29:14.540Z,12.30
2022-11-13T05:32:00.044Z,12.30
2022-11-13T05:34:45.541Z,12.20
2022-11-13T05:37:31.037Z,12.20
2022-11-13T05:40:16.762Z,12.20
2022-11-13T05:43:02.314Z,12.20
2022-11-13T05:45:47.844Z,12.20
2022-11-13T05:48:33.628Z,12.20
2022-11-13T05:51:20.999Z,12.20
2022-11-13T05:54:06.445Z,12.10
2022-11-13T05:56:51.645Z,12.10
2022-11-13T05:59:37.340Z,12.10
2022-11-13T06:02:22.893Z,12.00
2022-11-13T06:05:08.573Z,12.00
2022-11-13T06:07:54.049Z,11.90
2022-11-13T06:10:39.553Z,11.90
2022-11-13T06:13:24.979Z,11.80
2022-11-13T06:16:15.358Z,11.80
2022-11-13T06:19:01.975Z,11.80
2022-11-13T06:21:47.442Z,11.70
2022-11-13T06:24:32.898Z,11.80
2022-11-13T06:27:18.460Z,11.70
2022-11-13T06:30:04.238Z,11.70
2022-11-13T06:32:55.984Z,11.70
2022-11-13T06:35:41.474Z,11.70
2022-11-13T06:38:27.451Z,11.70
2022-11-13T06:41:13.742Z,11.70
2022-11-13T06:44:02.747Z,11.60
2022-11-13T06:46:48.993Z,11.60
2022-11-13T06:49:34.148Z,11.60
2022-11-13T06:52:19.603Z,11.60
2022-11-13T06:55:05.554Z,11.60
2022-11-13T06:57:51.187Z,11.60
2022-11-13T07:00:38.263Z,11.60
2022-11-13T07:03:26.616Z,11.50
2022-11-13T07:06:24.624Z,11.50
2022-11-13T07:09:10.038Z,11.50
2022-11-13T07:11:55.379Z,11.40
2022-11-13T07:14:40.868Z,11.40
2022-11-13T07:17:26.366Z,11.30
2022-11-13T07:20:11.822Z,11.30
2022-11-13T07:22:58.145Z,11.40
2022-11-13T07:25:43.351Z,11.40
2022-11-13T07:28:29.071Z,11.40
2022-11-13T07:31:15.627Z,11.30
2022-11-13T07:34:00.884Z,11.30
2022-11-13T07:36:46.433Z,11.40
2022-11-13T07:39:31.743Z,11.50
2022-11-13T07:42:17.169Z,11.50
2022-11-13T07:45:02.610Z,11.50
2022-11-13T07:47:48.057Z,11.50
2022-11-13T07:50:35.325Z,11.50
2022-11-13T07:53:20.986Z,11.60
2022-11-13T07:56:06.603Z,11.60
2022-11-13T07:58:52.128Z,11.60
2022-11-13T08:01:38.506Z,11.50
2022-11-13T08:04:23.947Z,11.50
2022-11-13T08:07:11.453Z,11.50
2022-11-13T08:09:57.010Z,11.50
2022-11-13T08:12:42.878Z,11.60
2022-11-13T08:15:29.261Z,11.50
2022-11-13T08:18:14.888Z,11.50
2022-11-13T08:21:04.370Z,11.60
2022-11-13T08:23:50.438Z,11.60
2022-11-13T08:26:38.406Z,11.70
2022-11-13T08:29:24.013Z,11.70
2022-11-13T08:32:09.431Z,11.70
2022-11-13T08:34:54.935Z,11.60
2022-11-13T08:37:40.145Z,11.60
2022-11-13T08:40:25.621Z,11.50
2022-11-13T08:43:11.132Z,11.40
2022-11-13T08:45:56.565Z,11.50
2022-11-13T08:48:42.026Z,11.40
2022-11-13T08:51:27.500Z,11.40
2022-11-13T08:54:13.150Z,11.50
2022-11-13T08:57:03.271Z,11.50
2022-11-13T08:59:51.234Z,11.60
2022-11-13T09:02:36.630Z,11.60
2022-11-13T09:05:22.545Z,11.50
2022-11-13T09:08:08.171Z,11.60
2022-11-13T09:10:53.604Z,11.60
2022-11-13T09:13:44.512Z,11.50
2022-11-13T09:16:32.542Z,11.50
2022-11-13T09:19:17.874Z,11.50
2022-11-13T09:22:03.625Z,11.60
2022-11-13T09:24:49.180Z,11.60
2022-11-13T09:27:34.607Z,11.70
2022-11-13T09:30:20.168Z,11.80
2022-11-13T09:33:06.124Z,11.80
2022-11-13T09:35:51.689Z,11.90
2022-11-13T09:38:37.269Z,11.90
2022-11-13T09:41:28.386Z,12.00
2022-11-13T09:44:20.620Z,12.10
2022-11-13T09:47:18.268Z,12.20
2022-11-13T09:50:10.928Z,12.20
2022-11-13T09:52:56.346Z,12.20
2022-11-13T09:56:20.255Z,12.30
2022-11-13T09:59:28.076Z,12.40
2022-11-13T10:03:11.534Z,12.50
2022-11-13T10:06:04.932Z,12.50
2022-11-13T10:09:01.062Z,12.50
2022-11-13T10:11:54.536Z,12.50
2022-11-13T10:14:47.118Z,12.60
2022-11-13T10:17:46.179Z,12.60
2022-11-13T10:20:57.894Z,12.70
2022-11-13T10:23:43.229Z,12.80
2022-11-13T10:26:29.641Z,12.90
2022-11-13T10:29:16.288Z,12.90
2022-11-13T10:32:23.845Z,13.00
2022-11-13T10:35:42.484Z,13.00
2022-11-13T10:39:05.302Z,13.00
2022-11-13T10:41:52.394Z,13.00
2022-11-13T10:44:38.111Z,13.00
2022-11-13T10:47:49.507Z,13.10
2022-11-13T10:50:31.017Z,13.10
2022-11-13T10:53:19.745Z,13.20
2022-11-13T10:56:29.477Z,13.30
2022-11-13T10:59:16.366Z,13.30
2022-11-13T11:02:15.298Z,13.30
2022-11-13T11:05:16.955Z,13.30
2022-11-13T11:08:06.442Z,13.30
2022-11-13T11:11:21.735Z,13.40
2022-11-13T11:14:23.202Z,13.40
2022-11-13T11:17:08.441Z,13.30
2022-11-13T11:20:00.879Z,13.20
2022-11-13T11:22:46.093Z,13.20
2022-11-13T11:25:52.071Z,13.20
2022-11-13T11:28:47.626Z,13.30
2022-11-13T11:31:38.121Z,13.20
2022-11-13T11:34:30.034Z,13.00
2022-11-13T11:37:17.060Z,13.00
2022-11-13T11:40:13.178Z,13.00
2022-11-13T11:43:30.602Z,12.90
2022-11-13T11:46:20.166Z,12.80
2022-11-13T11:49:06.358Z,12.80
2022-11-13T11:51:57.886Z,12.80
2022-11-13T11:54:47.040Z,12.80
2022-11-13T11:57:53.711Z,12.90
2022-11-13T12:00:39.866Z,13.00
2022-11-13T12:03:44.713Z,13.10
2022-11-13T12:06:39.465Z,13.10
2022-11-13T12:09:33.759Z,13.10
2022-11-13T12:12:30.272Z,13.10
2022-11-13T12:15:30.863Z,13.00
2022-11-13T12:18:36.177Z,13.10
2022-11-13T12:21:41.270Z,13.20
2022-11-13T12:25:00.437Z,13.30
2022-11-13T12:28:13.420Z,13.40
2022-11-13T12:31:12.495Z,13.60
2022-11-13T12:34:07.857Z,13.70
2022-11-13T12:36:53.430Z,13.70
2022-11-13T12:39:38.963Z,13.70
2022-11-13T12:42:48.321Z,13.70
2022-11-13T12:45:33.683Z,13.60
2022-11-13T12:48:18.970Z,13.70
2022-11-13T12:51:07.876Z,13.70
2022-11-13T12:53:54.493Z,13.70
2022-11-13T12:56:39.753Z,13.80
2022-11-13T12:59:32.091Z,13.80
2022-11-13T13:02:56.840Z,13.90
2022-11-13T13:05:57.356Z,13.90
2022-11-13T13:09:21.105Z,13.90
2022-11-13T13:12:07.614Z,13.70
2022-11-13T13:15:27.414Z,13.70
2022-11-13T13:18:19.286Z,13.70
2022-11-13T13:21:12.230Z,13.70
2022-11-13T13:23:57.584Z,13.80
2022-11-13T13:26:47.051Z,13.90
2022-11-13T13:29:33.501Z,14.00
2022-11-13T13:32:28.031Z,14.10
2022-11-13T13:35:30.054Z,14.10
2022-11-13T13:38:31.283Z,14.30
2022-11-13T13:41:31.183Z,14.30
2022-11-13T13:44:31.888Z,14.40
2022-11-13T13:47:27.342Z,14.40
2022-11-13T13:50:19.708Z,14.50
2022-11-13T13:53:04.933Z,14.40
2022-11-13T13:55:52.943Z,14.40
2022-11-13T13:58:38.582Z,14.20
2022-11-13T14:01:31.019Z,14.10
2022-11-13T14:04:21.395Z,14.10
2022-11-13T14:07:17.874Z,14.10
2022-11-13T14:10:17.381Z,14.00
2022-11-13T14:13:03.096Z,14.00
2022-11-13T14:15:48.819Z,14.00
2022-11-13T14:18:34.689Z,13.90
2022-11-13T14:21:22.234Z,13.80
2022-11-13T14:24:34.172Z,13.90
2022-11-13T14:27:22.339Z,14.00
2022-11-13T14:30:23.861Z,14.00
2022-11-13T14:33:11.016Z,14.00
2022-11-13T14:35:56.610Z,14.00
2022-11-13T14:38:50.537Z,13.90
2022-11-13T14:41:42.007Z,13.80
2022-11-13T14:44:31.974Z,13.80
2022-11-13T14:47:26.486Z,13.80
2022-11-13T14:50:21.000Z,13.70
2022-11-13T14:53:08.014Z,13.60
2022-11-13T14:55:54.764Z,13.60
2022-11-13T14:58:43.931Z,13.60
2022-11-13T15:01:29.564Z,13.50
2022-11-13T15:04:14.888Z,13.50
2022-11-13T15:07:02.405Z,13.50
2022-11-13T15:09:47.808Z,13.50
2022-11-13T15:12:33.249Z,13.50
2022-11-13T15:15:24.029Z,13.50
2022-11-13T15:18:13.877Z,13.40
2022-11-13T15:20:58.993Z,13.50
2022-11-13T15:23:44.891Z,13.50
2022-11-13T15:26:30.171Z,13.40
2022-11-13T15:29:15.698Z,13.40
2022-11-13T15:32:02.006Z,13.30
2022-11-13T15:34:47.192Z,13.40
2022-11-13T15:37:33.225Z,13.30
2022-11-13T15:40:18.598Z,13.30
2022-11-13T15:43:04.362Z,13.40
2022-11-13T15:45:49.653Z,13.30
2022-11-13T15:48:35.112Z,13.30
2022-11-13T15:51:32.199Z,13.30
2022-11-13T15:54:20.853Z,13.40
2022-11-13T15:57:08.113Z,13.40
2022-11-13T15:59:53.548Z,13.40
2022-11-13T16:02:40.058Z,13.40
2022-11-13T16:05:29.168Z,13.40
2022-11-13T16:08:15.591Z,13.40
2022-11-13T16:11:01.632Z,13.30
2022-11-13T16:13:47.421Z,13.20
2022-11-13T16:16:40.854Z,13.20
2022-11-13T16:19:26.240Z,13.10
2022-11-13T16:22:20.183Z,13.00
2022-11-13T16:25:06.478Z,13.00
2022-11-13T16:27:52.085Z,13.00
2022-11-13T16:30:37.693Z,13.00
2022-11-13T16:33:23.128Z,13.00
2022-11-13T16:36:14.778Z,13.00
2022-11-13T16:39:00.933Z,13.00
2022-11-13T16:41:46.557Z,13.00
2022-11-13T16:44:32.011Z,13.00
2022-11-13T16:47:23.140Z,12.90
2022-11-13T16:50:13.741Z,12.90
2022-11-13T16:52:59.336Z,12.90
2022-11-13T16:55:44.754Z,13.00
2022-11-13T16:58:30.149Z,12.90
2022-11-13T17:01:16.662Z,12.90
2022-11-13T17:04:02.170Z,12.80
2022-11-13T17:06:47.722Z,12.80
2022-11-13T17:09:33.235Z,12.80
2022-11-13T17:12:21.917Z,12.80
2022-11-13T17:15:09.270Z,12.70
2022-11-13T17:17:57.253Z,12.80
2022-11-13T17:20:42.976Z,12.80
2022-11-13T17:23:28.750Z,12.80
2022-11-13T17:26:14.506Z,12.80
2022-11-13T17:29:00.038Z,12.80
2022-11-13T17:31:45.296Z,12.80
2022-11-13T17:34:31.031Z,12.90
2022-11-13T17:37:16.455Z,12.90
2022-11-13T17:40:01.932Z,12.80
2022-11-13T17:42:48.602Z,12.70
2022-11-13T17:45:37.773Z,12.70
2022-11-13T17:48:23.294Z,12.70
2022-11-13T17:51:13.237Z,12.70
2022-11-13T17:53:58.763Z,12.60
2022-11-13T17:56:44.693Z,12.60
2022-11-13T17:59:30.194Z,12.60
2022-11-13T18:02:15.811Z,12.70
2022-11-13T18:05:04.195Z,12.70
2022-11-13T18:07:50.023Z,12.70
2022-11-13T18:10:36.789Z,12.70
2022-11-13T18:13:22.574Z,12.70
2022-11-13T18:16:14.292Z,12.70
2022-11-13T18:19:00.618Z,12.80
2022-11-13T18:21:45.817Z,12.70
2022-11-13T18:24:31.580Z,12.70
2022-11-13T18:27:17.129Z,12.70
2022-11-13T18:30:02.596Z,12.70
2022-11-13T18:32:48.046Z,12.70
2022-11-13T18:35:33.418Z,12.70
2022-11-13T18:38:18.927Z,12.60
2022-11-13T18:41:05.328Z,12.60
2022-11-13T18:43:51.598Z,12.50
2022-11-13T18:46:37.115Z,12.50
2022-11-13T18:49:22.698Z,12.40
2022-11-13T18:52:08.015Z,12.40
2022-11-13T18:54:53.583Z,12.30
2022-11-13T18:57:39.112Z,12.30
2022-11-13T19:00:24.506Z,12.30
2022-11-13T19:03:09.944Z,12.20
2022-11-13T19:05:55.222Z,12.30
2022-11-13T19:08:41.059Z,12.20
2022-11-13T19:11:26.684Z,12.20
2022-11-13T19:14:16.414Z,12.20
2022-11-13T19:17:01.715Z,12.20
2022-11-13T19:19:47.209Z,12.20
2022-11-13T19:22:32.683Z,12.20
2022-11-13T19:25:18.192Z,12.20
2022-11-13T19:28:03.730Z,12.10
2022-11-13T19:30:49.390Z,12.10
2022-11-13T19:33:35.140Z,12.10
2022-11-13T19:36:21.750Z,12.00
2022-11-13T19:39:07.431Z,12.00
2022-11-13T19:41:52.720Z,12.00
2022-11-13T19:44:38.326Z,12.00
2022-11-13T19:47:23.739Z,12.00
2022-11-13T19:50:10.379Z,12.00
2022-11-13T19:52:55.934Z,12.00
2022-11-13T19:55:41.876Z,11.90
2022-11-13T19:58:29.341Z,11.90
2022-11-13T20:01:17.055Z,11.90
2022-11-13T20:04:03.010Z,11.90
2022-11-13T20:06:48.439Z,11.90
2022-11-13T20:09:33.962Z,11.90
2022-11-13T20:12:19.493Z,11.80
2022-11-13T20:15:05.417Z,11.80
2022-11-13T20:17:50.854Z,11.80
2022-11-13T20:20:36.393Z,11.70
2022-11-13T20:23:21.965Z,11.70
2022-11-13T20:26:09.161Z,11.70
2022-11-13T20:28:54.733Z,11.60
2022-11-13T20:31:40.158Z,11.60
2022-11-13T20:34:25.751Z,11.50
2022-11-13T20:37:11.282Z,11.50
2022-11-13T20:39:57.248Z,11.40
2022-11-13T20:42:42.766Z,11.40
2022-11-13T20:45:28.184Z,11.30
2022-11-13T20:48:13.790Z,11.30
2022-11-13T20:51:08.545Z,11.20
2022-11-13T20:53:54.241Z,11.20
2022-11-13T20:56:39.765Z,11.10
2022-11-13T20:59:25.488Z,11.10
2022-11-13T21:02:11.002Z,11.00
2022-11-13T21:04:56.465Z,11.10
2022-11-13T21:07:41.944Z,11.00
2022-11-13T21:10:27.316Z,11.00
2022-11-13T21:13:12.850Z,11.00
2022-11-13T21:15:58.522Z,11.00
2022-11-13T21:18:43.686Z,11.00
2022-11-13T21:21:29.262Z,11.00
2022-11-13T21:24:14.732Z,11.00
2022-11-13T21:27:00.184Z,11.00
2022-11-13T21:29:45.543Z,11.00
2022-11-13T21:32:31.232Z,10.90
2022-11-13T21:35:22.336Z,10.90
2022-11-13T21:38:08.057Z,10.80
2022-11-13T21:41:19.378Z,10.80
2022-11-13T21:44:08.057Z,10.80
2022-11-13T21:46:54.374Z,10.80
2022-11-13T21:49:40.004Z,10.80
2022-11-13T21:52:25.461Z,10.80
2022-11-13T21:55:11.105Z,10.80
2022-11-13T21:57:56.526Z,10.80
2022-11-13T22:00:41.897Z,10.80
2022-11-13T22:03:27.730Z,10.80
2022-11-13T22:06:18.558Z,10.80
2022-11-13T22:09:09.315Z,10.80
2022-11-13T22:11:54.603Z,10.80
2022-11-13T22:14:39.979Z,10.80
2022-11-13T22:17:25.381Z,10.80
2022-11-13T22:20:11.406Z,10.80
2022-11-13T22:22:56.981Z,10.80
2022-11-13T22:25:42.297Z,10.70
2022-11-13T22:28:28.360Z,10.70
2022-11-13T22:31:18.469Z,10.70
2022-11-13T22:34:04.049Z,10.60
2022-11-13T22:36:49.512Z,10.60
2022-11-13T22:39:34.973Z,10.50
2022-11-13T22:42:20.394Z,10.40
2022-11-13T22:45:22.447Z,10.40
2022-11-13T22:48:10.605Z,10.30
2022-11-13T22:50:56.150Z,10.20
2022-11-13T22:53:42.540Z,10.20
2022-11-13T22:56:30.838Z,10.10
2022-11-13T22:59:16.303Z,10.10
2022-11-13T23:02:01.843Z,10.00
2022-11-13T23:04:47.386Z,9.90
2022-11-13T23:07:32.768Z,9.90
2022-11-13T23:10:18.225Z,9.80
2022-11-13T23:13:03.774Z,9.80
2022-11-13T23:15:49.239Z,9.70
2022-11-13T23:18:34.623Z,9.70
2022-11-13T23:21:20.237Z,9.70
2022-11-13T23:24:06.013Z,9.70
2022-11-13T23:26:51.542Z,9.60
2022-11-13T23:29:37.090Z,9.60
2022-11-13T23:32:22.658Z,9.50
2022-11-13T23:35:08.540Z,9.50
2022-11-13T23:37:54.038Z,9.50
2022-11-13T23:40:39.800Z,9.50
2022-11-13T23:43:41.584Z,9.40
2022-11-13T23:46:31.058Z,9.40
2022-11-13T23:49:16.613Z,9.30
2022-11-13T23:52:02.220Z,9.30
2022-11-13T23:54:47.601Z,9.30
2022-11-13T23:57:33.161Z,9.20
